sensor_id;sensor_type;location;lat;lon;timestamp;pressure;altitude;pressure_sealevel;temperature;humidity
60974;BME280;46846;51.528;5.076;2024-01-27T00:01:13;102946.53;;;3.30;90.67
60974;BME280;46846;51.528;5.076;2024-01-27T00:03:38;102943.91;;;3.30;91.05
60974;BME280;46846;51.528;5.076;2024-01-27T00:06:04;102942.06;;;3.27;90.65
60974;BME280;46846;51.528;5.076;2024-01-27T00:08:29;102935.03;;;3.28;90.97
60974;BME280;46846;51.528;5.076;2024-01-27T00:10:55;102943.72;;;3.25;90.70
60974;BME280;46846;51.528;5.076;2024-01-27T00:13:20;102941.94;;;3.23;90.49
60974;BME280;46846;51.528;5.076;2024-01-27T00:15:45;102939.25;;;3.21;90.34
60974;BME280;46846;51.528;5.076;2024-01-27T00:18:11;102941.81;;;3.20;90.65
60974;BME280;46846;51.528;5.076;2024-01-27T00:20:36;102942.72;;;3.20;90.52
60974;BME280;46846;51.528;5.076;2024-01-27T00:23:03;102935.69;;;3.19;90.70
60974;BME280;46846;51.528;5.076;2024-01-27T00:25:28;102940.88;;;3.18;90.60
60974;BME280;46846;51.528;5.076;2024-01-27T00:27:54;102948.78;;;3.18;90.63
60974;BME280;46846;51.528;5.076;2024-01-27T00:30:19;102946.06;;;3.14;90.87
60974;BME280;46846;51.528;5.076;2024-01-27T00:32:45;102950.47;;;3.16;90.77
60974;BME280;46846;51.528;5.076;2024-01-27T00:35:10;102946.06;;;3.14;90.81
60974;BME280;46846;51.528;5.076;2024-01-27T00:37:40;102945.22;;;3.16;90.69
60974;BME280;46846;51.528;5.076;2024-01-27T00:40:10;102945.16;;;3.14;90.35
60974;BME280;46846;51.528;5.076;2024-01-27T00:42:36;102948.66;;;3.13;90.43
60974;BME280;46846;51.528;5.076;2024-01-27T00:45:03;102950.16;;;3.06;90.82
60974;BME280;46846;51.528;5.076;2024-01-27T00:47:28;102951.00;;;3.04;90.51
60974;BME280;46846;51.528;5.076;2024-01-27T00:49:54;102940.41;;;3.02;90.74
60974;BME280;46846;51.528;5.076;2024-01-27T00:52:20;102937.00;;;3.05;90.89
60974;BME280;46846;51.528;5.076;2024-01-27T00:54:45;102942.13;;;3.01;90.49
60974;BME280;46846;51.528;5.076;2024-01-27T00:57:10;102944.75;;;3.00;90.51
60974;BME280;46846;51.528;5.076;2024-01-27T00:59:36;102942.91;;;2.97;90.88
60974;BME280;46846;51.528;5.076;2024-01-27T01:02:01;102943.75;;;2.96;91.18
60974;BME280;46846;51.528;5.076;2024-01-27T01:04:27;102945.53;;;2.97;90.67
60974;BME280;46846;51.528;5.076;2024-01-27T01:06:52;102948.06;;;2.94;90.91
60974;BME280;46846;51.528;5.076;2024-01-27T01:09:18;102948.84;;;2.92;90.80
60974;BME280;46846;51.528;5.076;2024-01-27T01:11:43;102944.44;;;2.91;90.83
60974;BME280;46846;51.528;5.076;2024-01-27T01:14:09;102945.34;;;2.91;91.00
60974;BME280;46846;51.528;5.076;2024-01-27T01:16:34;102949.69;;;2.91;90.72
60974;BME280;46846;51.528;5.076;2024-01-27T01:18:59;102959.34;;;2.90;90.54
60974;BME280;46846;51.528;5.076;2024-01-27T01:21:25;102948.69;;;2.87;90.88
60974;BME280;46846;51.528;5.076;2024-01-27T01:23:52;102960.00;;;2.84;90.76
60974;BME280;46846;51.528;5.076;2024-01-27T01:26:17;102959.94;;;2.81;90.98
60974;BME280;46846;51.528;5.076;2024-01-27T01:28:42;102956.44;;;2.82;90.79
60974;BME280;46846;51.528;5.076;2024-01-27T01:31:08;102959.94;;;2.81;91.15
60974;BME280;46846;51.528;5.076;2024-01-27T01:33:34;102959.06;;;2.81;90.40
60974;BME280;46846;51.528;5.076;2024-01-27T01:35:59;102958.06;;;2.77;90.55
60974;BME280;46846;51.528;5.076;2024-01-27T01:38:24;102958.00;;;2.76;90.99
60974;BME280;46846;51.528;5.076;2024-01-27T01:40:50;102959.72;;;2.75;90.29
60974;BME280;46846;51.528;5.076;2024-01-27T01:43:15;102960.56;;;2.74;90.81
60974;BME280;46846;51.528;5.076;2024-01-27T01:45:40;102965.75;;;2.72;91.08
60974;BME280;46846;51.528;5.076;2024-01-27T01:48:07;102952.59;;;2.71;90.97
60974;BME280;46846;51.528;5.076;2024-01-27T01:50:33;102969.25;;;2.71;90.79
60974;BME280;46846;51.528;5.076;2024-01-27T01:52:59;102970.03;;;2.69;90.75
60974;BME280;46846;51.528;5.076;2024-01-27T01:55:25;102962.16;;;2.69;90.57
60974;BME280;46846;51.528;5.076;2024-01-27T01:57:51;102970.84;;;2.66;90.54
60974;BME280;46846;51.528;5.076;2024-01-27T02:00:17;102972.50;;;2.64;90.46
60974;BME280;46846;51.528;5.076;2024-01-27T02:02:46;102961.13;;;2.64;90.68
60974;BME280;46846;51.528;5.076;2024-01-27T02:05:14;102961.91;;;2.61;90.71
60974;BME280;46846;51.528;5.076;2024-01-27T02:07:39;102962.78;;;2.62;90.84
60974;BME280;46846;51.528;5.076;2024-01-27T02:10:08;102964.47;;;2.59;90.78
60974;BME280;46846;51.528;5.076;2024-01-27T02:12:38;102958.38;;;2.60;90.50
60974;BME280;46846;51.528;5.076;2024-01-27T02:15:03;102960.06;;;2.58;90.69
60974;BME280;46846;51.528;5.076;2024-01-27T02:17:29;102967.03;;;2.56;90.76
60974;BME280;46846;51.528;5.076;2024-01-27T02:19:54;102966.91;;;2.53;90.68
60974;BME280;46846;51.528;5.076;2024-01-27T02:22:20;102967.03;;;2.58;90.43
60974;BME280;46846;51.528;5.076;2024-01-27T02:24:45;102972.28;;;2.56;90.03
60974;BME280;46846;51.528;5.076;2024-01-27T02:27:12;102965.97;;;2.51;90.28
60974;BME280;46846;51.528;5.076;2024-01-27T02:29:37;102965.13;;;2.52;90.76
60974;BME280;46846;51.528;5.076;2024-01-27T02:32:03;102969.50;;;2.52;90.51
60974;BME280;46846;51.528;5.076;2024-01-27T02:34:29;102975.53;;;2.49;90.92
60974;BME280;46846;51.528;5.076;2024-01-27T02:36:54;102975.47;;;2.48;90.48
60974;BME280;46846;51.528;5.076;2024-01-27T02:39:20;102972.06;;;2.50;90.87
60974;BME280;46846;51.528;5.076;2024-01-27T02:41:45;102978.94;;;2.46;90.62
60974;BME280;46846;51.528;5.076;2024-01-27T02:44:10;102979.72;;;2.44;90.55
60974;BME280;46846;51.528;5.076;2024-01-27T02:46:36;102974.47;;;2.44;90.71
60974;BME280;46846;51.528;5.076;2024-01-27T02:49:01;102979.66;;;2.42;90.66
60974;BME280;46846;51.528;5.076;2024-01-27T02:51:27;102983.19;;;2.43;90.47
60974;BME280;46846;51.528;5.076;2024-01-27T02:53:52;102970.00;;;2.41;90.33
60974;BME280;46846;51.528;5.076;2024-01-27T02:56:18;102977.84;;;2.40;89.83
60974;BME280;46846;51.528;5.076;2024-01-27T02:58:43;102971.59;;;2.36;89.96
60974;BME280;46846;51.528;5.076;2024-01-27T03:01:08;102956.72;;;2.37;90.44
60974;BME280;46846;51.528;5.076;2024-01-27T03:03:34;102962.81;;;2.36;90.00
60974;BME280;46846;51.528;5.076;2024-01-27T03:05:59;102960.09;;;2.32;90.63
60974;BME280;46846;51.528;5.076;2024-01-27T03:08:24;102967.13;;;2.34;90.45
60974;BME280;46846;51.528;5.076;2024-01-27T03:10:50;102968.91;;;2.35;90.17
60974;BME280;46846;51.528;5.076;2024-01-27T03:13:15;102966.13;;;2.30;90.16
60974;BME280;46846;51.528;5.076;2024-01-27T03:15:41;102978.38;;;2.29;90.54
60974;BME280;46846;51.528;5.076;2024-01-27T03:18:08;102985.31;;;2.27;90.70
60974;BME280;46846;51.528;5.076;2024-01-27T03:20:34;102975.56;;;2.25;90.44
60974;BME280;46846;51.528;5.076;2024-01-27T03:22:59;102978.13;;;2.23;90.55
60974;BME280;46846;51.528;5.076;2024-01-27T03:25:24;102983.38;;;2.22;90.06
60974;BME280;46846;51.528;5.076;2024-01-27T03:27:51;102987.72;;;2.21;90.36
60974;BME280;46846;51.528;5.076;2024-01-27T03:30:16;102987.72;;;2.21;90.74
60974;BME280;46846;51.528;5.076;2024-01-27T03:32:41;102979.75;;;2.19;90.43
60974;BME280;46846;51.528;5.076;2024-01-27T03:35:07;102991.19;;;2.20;90.44
60974;BME280;46846;51.528;5.076;2024-01-27T03:37:32;102995.44;;;2.16;90.42
60974;BME280;46846;51.528;5.076;2024-01-27T03:39:59;102979.75;;;2.18;90.20
60974;BME280;46846;51.528;5.076;2024-01-27T03:42:24;102975.34;;;2.18;90.21
60974;BME280;46846;51.528;5.076;2024-01-27T03:44:50;102988.41;;;2.15;90.14
60974;BME280;46846;51.528;5.076;2024-01-27T03:47:16;102984.78;;;2.13;90.08
60974;BME280;46846;51.528;5.076;2024-01-27T03:49:42;102984.88;;;2.15;90.21
60974;BME280;46846;51.528;5.076;2024-01-27T03:52:07;102985.72;;;2.14;90.79
60974;BME280;46846;51.528;5.076;2024-01-27T03:54:33;102986.47;;;2.11;90.41
60974;BME280;46846;51.528;5.076;2024-01-27T03:56:58;102982.91;;;2.09;90.47
60974;BME280;46846;51.528;5.076;2024-01-27T03:59:24;102989.91;;;2.09;90.08
60974;BME280;46846;51.528;5.076;2024-01-27T04:01:49;102985.47;;;2.08;90.17
60974;BME280;46846;51.528;5.076;2024-01-27T04:04:15;102988.09;;;2.08;90.25
60974;BME280;46846;51.528;5.076;2024-01-27T04:06:40;102988.00;;;2.04;90.48
60974;BME280;46846;51.528;5.076;2024-01-27T04:09:06;102990.56;;;2.03;90.29
60974;BME280;46846;51.528;5.076;2024-01-27T04:11:35;102981.81;;;2.02;90.32
60974;BME280;46846;51.528;5.076;2024-01-27T04:14:05;102988.72;;;2.00;90.59
60974;BME280;46846;51.528;5.076;2024-01-27T04:16:31;102983.47;;;2.00;90.36
60974;BME280;46846;51.528;5.076;2024-01-27T04:18:56;102986.09;;;2.00;90.41
60974;BME280;46846;51.528;5.076;2024-01-27T04:21:22;102987.72;;;1.97;90.19
60974;BME280;46846;51.528;5.076;2024-01-27T04:23:47;102987.69;;;1.95;90.49
60974;BME280;46846;51.528;5.076;2024-01-27T04:26:13;102978.00;;;1.94;90.45
60974;BME280;46846;51.528;5.076;2024-01-27T04:28:38;102984.09;;;1.93;90.53
60974;BME280;46846;51.528;5.076;2024-01-27T04:31:04;102984.94;;;1.92;90.25
60974;BME280;46846;51.528;5.076;2024-01-27T04:33:30;102995.38;;;1.90;90.21
60974;BME280;46846;51.528;5.076;2024-01-27T04:35:55;102991.88;;;1.90;90.19
60974;BME280;46846;51.528;5.076;2024-01-27T04:38:21;103000.59;;;1.89;90.28
60974;BME280;46846;51.528;5.076;2024-01-27T04:40:46;102993.56;;;1.88;90.13
60974;BME280;46846;51.528;5.076;2024-01-27T04:43:18;102998.81;;;1.88;90.20
60974;BME280;46846;51.528;5.076;2024-01-27T04:45:45;102996.19;;;1.88;89.97
60974;BME280;46846;51.528;5.076;2024-01-27T04:48:11;102995.22;;;1.86;90.37
60974;BME280;46846;51.528;5.076;2024-01-27T04:50:36;102997.72;;;1.83;90.36
60974;BME280;46846;51.528;5.076;2024-01-27T04:53:02;102991.63;;;1.84;90.21
60974;BME280;46846;51.528;5.076;2024-01-27T04:55:27;102989.72;;;1.80;90.35
60974;BME280;46846;51.528;5.076;2024-01-27T04:57:53;102988.91;;;1.81;90.61
60974;BME280;46846;51.528;5.076;2024-01-27T05:00:19;102998.44;;;1.78;90.40
60974;BME280;46846;51.528;5.076;2024-01-27T05:02:45;102994.97;;;1.80;90.29
60974;BME280;46846;51.528;5.076;2024-01-27T05:05:11;102998.44;;;1.78;90.34
60974;BME280;46846;51.528;5.076;2024-01-27T05:07:37;103000.13;;;1.76;90.53
60974;BME280;46846;51.528;5.076;2024-01-27T05:10:02;103003.59;;;1.75;90.31
60974;BME280;46846;51.528;5.076;2024-01-27T05:12:28;103007.16;;;1.77;90.25
60974;BME280;46846;51.528;5.076;2024-01-27T05:14:53;103004.50;;;1.76;90.31
60974;BME280;46846;51.528;5.076;2024-01-27T05:17:19;103000.03;;;1.73;90.33
60974;BME280;46846;51.528;5.076;2024-01-27T05:19:44;103000.91;;;1.74;90.14
60974;BME280;46846;51.528;5.076;2024-01-27T05:22:09;102995.63;;;1.72;89.87
60974;BME280;46846;51.528;5.076;2024-01-27T05:24:35;102997.41;;;1.73;89.99
60974;BME280;46846;51.528;5.076;2024-01-27T05:27:00;102993.75;;;1.70;89.96
60974;BME280;46846;51.528;5.076;2024-01-27T05:29:27;102979.88;;;1.72;89.86
60974;BME280;46846;51.528;5.076;2024-01-27T05:31:53;102984.13;;;1.70;90.11
60974;BME280;46846;51.528;5.076;2024-01-27T05:34:18;102980.63;;;1.70;89.96
60974;BME280;46846;51.528;5.076;2024-01-27T05:36:44;102984.91;;;1.68;90.08
60974;BME280;46846;51.528;5.076;2024-01-27T05:39:09;102986.59;;;1.66;89.88
60974;BME280;46846;51.528;5.076;2024-01-27T05:41:34;102985.72;;;1.65;89.97
60974;BME280;46846;51.528;5.076;2024-01-27T05:44:00;102984.81;;;1.64;89.66
60974;BME280;46846;51.528;5.076;2024-01-27T05:46:25;102982.09;;;1.61;89.91
60974;BME280;46846;51.528;5.076;2024-01-27T05:48:51;102985.53;;;1.60;89.99
60974;BME280;46846;51.528;5.076;2024-01-27T05:51:19;102987.34;;;1.61;89.81
60974;BME280;46846;51.528;5.076;2024-01-27T05:53:45;102983.75;;;1.59;89.91
60974;BME280;46846;51.528;5.076;2024-01-27T05:56:11;102985.50;;;1.59;90.11
60974;BME280;46846;51.528;5.076;2024-01-27T05:58:37;102986.25;;;1.56;89.57
60974;BME280;46846;51.528;5.076;2024-01-27T06:01:02;102980.94;;;1.55;89.59
60974;BME280;46846;51.528;5.076;2024-01-27T06:03:28;102976.53;;;1.54;89.87
60974;BME280;46846;51.528;5.076;2024-01-27T06:05:53;102980.88;;;1.53;90.24
60974;BME280;46846;51.528;5.076;2024-01-27T06:08:19;102979.09;;;1.52;89.78
60974;BME280;46846;51.528;5.076;2024-01-27T06:10:45;102981.69;;;1.50;90.12
60974;BME280;46846;51.528;5.076;2024-01-27T06:13:11;102983.31;;;1.48;90.16
60974;BME280;46846;51.528;5.076;2024-01-27T06:15:36;102977.22;;;1.48;90.19
60974;BME280;46846;51.528;5.076;2024-01-27T06:18:01;102978.84;;;1.46;90.07
60974;BME280;46846;51.528;5.076;2024-01-27T06:20:27;102973.50;;;1.43;90.22
60974;BME280;46846;51.528;5.076;2024-01-27T06:22:53;102982.28;;;1.43;90.62
60974;BME280;46846;51.528;5.076;2024-01-27T06:25:19;102968.16;;;1.40;90.78
60974;BME280;46846;51.528;5.076;2024-01-27T06:27:44;102976.78;;;1.37;90.31
60974;BME280;46846;51.528;5.076;2024-01-27T06:30:10;102973.25;;;1.36;90.49
60974;BME280;46846;51.528;5.076;2024-01-27T06:32:36;102978.56;;;1.38;90.33
60974;BME280;46846;51.528;5.076;2024-01-27T06:35:01;102981.13;;;1.36;90.09
60974;BME280;46846;51.528;5.076;2024-01-27T06:37:28;102980.28;;;1.38;90.25
60974;BME280;46846;51.528;5.076;2024-01-27T06:39:53;102981.09;;;1.35;89.95
60974;BME280;46846;51.528;5.076;2024-01-27T06:42:18;102988.00;;;1.33;90.37
60974;BME280;46846;51.528;5.076;2024-01-27T06:44:44;102988.81;;;1.32;90.47
60974;BME280;46846;51.528;5.076;2024-01-27T06:47:09;102993.19;;;1.31;90.15
60974;BME280;46846;51.528;5.076;2024-01-27T06:49:35;103001.94;;;1.32;90.27
60974;BME280;46846;51.528;5.076;2024-01-27T06:52:00;103001.94;;;1.32;90.45
60974;BME280;46846;51.528;5.076;2024-01-27T06:54:26;103004.56;;;1.32;90.10
60974;BME280;46846;51.528;5.076;2024-01-27T06:56:51;103015.91;;;1.31;90.10
60974;BME280;46846;51.528;5.076;2024-01-27T06:59:16;103015.81;;;1.29;90.43
60974;BME280;46846;51.528;5.076;2024-01-27T07:01:46;103023.66;;;1.28;90.56
60974;BME280;46846;51.528;5.076;2024-01-27T07:04:14;103026.22;;;1.26;90.29
60974;BME280;46846;51.528;5.076;2024-01-27T07:06:39;103025.31;;;1.26;90.43
60974;BME280;46846;51.528;5.076;2024-01-27T07:09:04;103027.94;;;1.26;90.27
60974;BME280;46846;51.528;5.076;2024-01-27T07:11:32;103031.38;;;1.25;90.06
60974;BME280;46846;51.528;5.076;2024-01-27T07:13:57;103022.56;;;1.22;90.14
60974;BME280;46846;51.528;5.076;2024-01-27T07:16:23;103024.34;;;1.23;90.22
60974;BME280;46846;51.528;5.076;2024-01-27T07:18:49;103024.25;;;1.20;90.17
60974;BME280;46846;51.528;5.076;2024-01-27T07:21:15;103021.63;;;1.20;90.23
60974;BME280;46846;51.528;5.076;2024-01-27T07:23:44;103024.88;;;1.15;90.28
60974;BME280;46846;51.528;5.076;2024-01-27T07:26:10;103021.38;;;1.14;89.80
60974;BME280;46846;51.528;5.076;2024-01-27T07:28:36;103013.53;;;1.16;90.34
60974;BME280;46846;51.528;5.076;2024-01-27T07:31:01;103011.84;;;1.16;90.28
60974;BME280;46846;51.528;5.076;2024-01-27T07:33:27;103020.53;;;1.15;90.17
60974;BME280;46846;51.528;5.076;2024-01-27T07:35:52;103020.53;;;1.15;90.40
60974;BME280;46846;51.528;5.076;2024-01-27T07:38:17;103021.38;;;1.14;90.08
60974;BME280;46846;51.528;5.076;2024-01-27T07:40:43;103024.84;;;1.13;89.91
60974;BME280;46846;51.528;5.076;2024-01-27T07:43:08;103032.63;;;1.12;89.89
60974;BME280;46846;51.528;5.076;2024-01-27T07:45:33;103029.09;;;1.11;90.11
60974;BME280;46846;51.528;5.076;2024-01-27T07:47:59;103021.31;;;1.13;90.36
60974;BME280;46846;51.528;5.076;2024-01-27T07:50:24;103023.84;;;1.11;90.20
60974;BME280;46846;51.528;5.076;2024-01-27T07:52:50;103024.75;;;1.12;90.17
60974;BME280;46846;51.528;5.076;2024-01-27T07:55:15;103027.38;;;1.12;90.09
60974;BME280;46846;51.528;5.076;2024-01-27T07:57:42;103029.09;;;1.11;90.08
60974;BME280;46846;51.528;5.076;2024-01-27T08:00:08;103023.81;;;1.09;89.94
60974;BME280;46846;51.528;5.076;2024-01-27T08:02:33;103018.56;;;1.09;89.90
60974;BME280;46846;51.528;5.076;2024-01-27T08:04:59;103019.38;;;1.08;90.00
60974;BME280;46846;51.528;5.076;2024-01-27T08:07:24;103025.53;;;1.09;89.92
60974;BME280;46846;51.528;5.076;2024-01-27T08:09:50;103024.69;;;1.10;89.94
60974;BME280;46846;51.528;5.076;2024-01-27T08:12:15;103015.88;;;1.08;89.97
60974;BME280;46846;51.528;5.076;2024-01-27T08:14:41;103018.56;;;1.09;89.80
60974;BME280;46846;51.528;5.076;2024-01-27T08:17:06;103012.34;;;1.07;90.15
60974;BME280;46846;51.528;5.076;2024-01-27T08:19:32;103007.06;;;1.06;89.91
60974;BME280;46846;51.528;5.076;2024-01-27T08:21:57;103015.81;;;1.06;89.70
60974;BME280;46846;51.528;5.076;2024-01-27T08:24:23;103016.72;;;1.07;89.78
60974;BME280;46846;51.528;5.076;2024-01-27T08:26:49;103024.50;;;1.05;89.83
60974;BME280;46846;51.528;5.076;2024-01-27T08:29:15;103022.63;;;1.01;89.75
60974;BME280;46846;51.528;5.076;2024-01-27T08:31:40;103024.41;;;1.02;89.91
60974;BME280;46846;51.528;5.076;2024-01-27T08:34:06;103032.13;;;0.99;90.26
60974;BME280;46846;51.528;5.076;2024-01-27T08:36:32;103037.25;;;0.96;90.11
60974;BME280;46846;51.528;5.076;2024-01-27T08:38:59;103022.41;;;0.97;90.02
60974;BME280;46846;51.528;5.076;2024-01-27T08:41:24;103017.16;;;0.97;90.14
60974;BME280;46846;51.528;5.076;2024-01-27T08:43:50;103025.03;;;0.97;90.18
60974;BME280;46846;51.528;5.076;2024-01-27T08:46:16;103031.16;;;0.97;90.61
60974;BME280;46846;51.528;5.076;2024-01-27T08:48:43;103031.09;;;0.95;90.40
60974;BME280;46846;51.528;5.076;2024-01-27T08:51:09;103035.47;;;0.95;90.28
60974;BME280;46846;51.528;5.076;2024-01-27T08:53:35;103034.47;;;0.93;90.36
60974;BME280;46846;51.528;5.076;2024-01-27T08:56:01;103036.34;;;0.95;90.27
60974;BME280;46846;51.528;5.076;2024-01-27T08:58:26;103036.34;;;0.95;90.34
60974;BME280;46846;51.528;5.076;2024-01-27T09:00:51;103038.09;;;0.95;90.12
60974;BME280;46846;51.528;5.076;2024-01-27T09:03:18;103037.06;;;0.91;90.24
60974;BME280;46846;51.528;5.076;2024-01-27T09:05:46;103039.03;;;0.97;90.18
60974;BME280;46846;51.528;5.076;2024-01-27T09:08:11;103045.03;;;0.94;90.42
60974;BME280;46846;51.528;5.076;2024-01-27T09:10:36;103050.16;;;0.91;90.43
60974;BME280;46846;51.528;5.076;2024-01-27T09:13:02;103041.28;;;0.88;90.21
60974;BME280;46846;51.528;5.076;2024-01-27T09:15:27;103042.31;;;0.91;90.00
60974;BME280;46846;51.528;5.076;2024-01-27T09:17:53;103042.34;;;0.93;90.28
60974;BME280;46846;51.528;5.076;2024-01-27T09:20:19;103049.25;;;0.91;90.38
60974;BME280;46846;51.528;5.076;2024-01-27T09:22:45;103041.41;;;0.91;90.33
60974;BME280;46846;51.528;5.076;2024-01-27T09:25:12;103047.56;;;0.91;90.21
60974;BME280;46846;51.528;5.076;2024-01-27T09:27:38;103053.56;;;0.89;90.44
60974;BME280;46846;51.528;5.076;2024-01-27T09:30:04;103071.81;;;0.87;90.53
60974;BME280;46846;51.528;5.076;2024-01-27T09:32:30;103077.97;;;0.88;90.40
60974;BME280;46846;51.528;5.076;2024-01-27T09:34:55;103080.88;;;0.94;90.47
60974;BME280;46846;51.528;5.076;2024-01-27T09:37:21;103082.56;;;0.93;90.36
60974;BME280;46846;51.528;5.076;2024-01-27T09:39:46;103087.81;;;0.93;90.43
60974;BME280;46846;51.528;5.076;2024-01-27T09:42:13;103087.00;;;0.94;90.41
60974;BME280;46846;51.528;5.076;2024-01-27T09:44:43;103086.16;;;0.95;90.24
60974;BME280;46846;51.528;5.076;2024-01-27T09:47:11;103091.41;;;0.95;90.38
60974;BME280;46846;51.528;5.076;2024-01-27T09:49:38;103087.94;;;0.97;89.92
60974;BME280;46846;51.528;5.076;2024-01-27T09:52:05;103088.19;;;1.03;90.23
60974;BME280;46846;51.528;5.076;2024-01-27T09:54:30;103085.66;;;1.04;89.95
60974;BME280;46846;51.528;5.076;2024-01-27T09:56:56;103082.19;;;1.05;90.22
60974;BME280;46846;51.528;5.076;2024-01-27T09:59:22;103083.22;;;1.09;90.22
60974;BME280;46846;51.528;5.076;2024-01-27T10:01:48;103087.56;;;1.08;90.12
60974;BME280;46846;51.528;5.076;2024-01-27T10:04:14;103094.53;;;1.08;90.25
60974;BME280;46846;51.528;5.076;2024-01-27T10:06:42;103095.31;;;1.05;90.39
60974;BME280;46846;51.528;5.076;2024-01-27T10:09:08;103097.06;;;1.05;90.21
60974;BME280;46846;51.528;5.076;2024-01-27T10:11:36;103105.88;;;1.07;90.00
60974;BME280;46846;51.528;5.076;2024-01-27T10:14:01;103106.75;;;1.07;89.79
60974;BME280;46846;51.528;5.076;2024-01-27T10:16:27;103112.06;;;1.09;90.09
60974;BME280;46846;51.528;5.076;2024-01-27T10:19:03;103113.66;;;1.05;90.14
60974;BME280;46846;51.528;5.076;2024-01-27T10:21:28;103111.88;;;1.04;90.10
60974;BME280;46846;51.528;5.076;2024-01-27T10:23:53;103116.63;;;1.13;89.80
60974;BME280;46846;51.528;5.076;2024-01-27T10:26:19;103115.31;;;1.03;90.05
60974;BME280;46846;51.528;5.076;2024-01-27T10:28:54;103115.31;;;1.03;89.81
60974;BME280;46846;51.528;5.076;2024-01-27T10:31:32;103130.41;;;1.09;89.89
60974;BME280;46846;51.528;5.076;2024-01-27T10:33:58;103138.09;;;1.04;89.87
60974;BME280;46846;51.528;5.076;2024-01-27T10:36:24;103135.13;;;0.97;90.39
60974;BME280;46846;51.528;5.076;2024-01-27T10:38:51;103130.03;;;1.00;90.18
60974;BME280;46846;51.528;5.076;2024-01-27T10:41:22;103123.84;;;0.98;90.45
60974;BME280;46846;51.528;5.076;2024-01-27T10:43:53;103121.34;;;1.01;90.42
60974;BME280;46846;51.528;5.076;2024-01-27T10:46:21;103122.09;;;0.98;90.31
60974;BME280;46846;51.528;5.076;2024-01-27T10:48:51;103122.34;;;1.04;90.31
60974;BME280;46846;51.528;5.076;2024-01-27T10:51:30;103111.03;;;1.05;90.12
60974;BME280;46846;51.528;5.076;2024-01-27T10:54:01;103104.91;;;1.05;90.34
60974;BME280;46846;51.528;5.076;2024-01-27T10:56:27;103100.47;;;1.04;90.50
60974;BME280;46846;51.528;5.076;2024-01-27T10:58:56;103098.84;;;1.06;90.37
60974;BME280;46846;51.528;5.076;2024-01-27T11:01:23;103093.69;;;1.09;90.40
60974;BME280;46846;51.528;5.076;2024-01-27T11:03:49;103086.59;;;1.06;90.44
60974;BME280;46846;51.528;5.076;2024-01-27T11:06:18;103091.84;;;1.06;90.54
60974;BME280;46846;51.528;5.076;2024-01-27T11:08:45;103104.91;;;1.05;90.53
60974;BME280;46846;51.528;5.076;2024-01-27T11:11:11;103089.78;;;0.99;90.75
60974;BME280;46846;51.528;5.076;2024-01-27T11:13:37;103090.72;;;1.00;90.89
60974;BME280;46846;51.528;5.076;2024-01-27T11:16:03;103091.53;;;0.99;90.65
60974;BME280;46846;51.528;5.076;2024-01-27T11:18:29;103093.91;;;0.92;90.67
60974;BME280;46846;51.528;5.076;2024-01-27T11:20:55;103093.00;;;0.92;90.90
60974;BME280;46846;51.528;5.076;2024-01-27T11:23:31;103094.78;;;0.93;91.17
60974;BME280;46846;51.528;5.076;2024-01-27T11:26:07;103102.97;;;1.01;91.07
60974;BME280;46846;51.528;5.076;2024-01-27T11:28:33;103087.94;;;0.97;90.76
60974;BME280;46846;51.528;5.076;2024-01-27T11:31:03;103083.72;;;1.00;90.80
60974;BME280;46846;51.528;5.076;2024-01-27T11:33:28;103075.16;;;1.04;90.95
60974;BME280;46846;51.528;5.076;2024-01-27T11:36:04;103071.13;;;1.13;90.77
60974;BME280;46846;51.528;5.076;2024-01-27T11:38:30;103066.91;;;1.16;90.79
60974;BME280;46846;51.528;5.076;2024-01-27T11:40:56;103061.53;;;1.13;90.35
60974;BME280;46846;51.528;5.076;2024-01-27T11:43:21;103060.97;;;1.20;90.88
60974;BME280;46846;51.528;5.076;2024-01-27T11:46:00;103062.69;;;1.20;90.79
60974;BME280;46846;51.528;5.076;2024-01-27T11:48:26;103061.66;;;1.16;90.52
60974;BME280;46846;51.528;5.076;2024-01-27T11:51:10;103061.66;;;1.16;90.17
60974;BME280;46846;51.528;5.076;2024-01-27T11:53:36;103064.66;;;1.26;90.64
60974;BME280;46846;51.528;5.076;2024-01-27T11:56:03;103064.66;;;1.26;90.52
60974;BME280;46846;51.528;5.076;2024-01-27T11:58:28;103060.41;;;1.29;90.72
60974;BME280;46846;51.528;5.076;2024-01-27T12:00:55;103058.69;;;1.30;90.83
60974;BME280;46846;51.528;5.076;2024-01-27T12:03:21;103059.66;;;1.32;90.75
60974;BME280;46846;51.528;5.076;2024-01-27T12:05:47;103058.81;;;1.33;90.87
60974;BME280;46846;51.528;5.076;2024-01-27T12:08:12;103059.59;;;1.30;90.46
60974;BME280;46846;51.528;5.076;2024-01-27T12:10:38;103057.25;;;1.15;90.67
60974;BME280;46846;51.528;5.076;2024-01-27T12:13:03;103060.63;;;1.13;90.83
60974;BME280;46846;51.528;5.076;2024-01-27T12:15:29;103053.84;;;1.18;91.08
60974;BME280;46846;51.528;5.076;2024-01-27T12:17:55;103052.38;;;1.25;91.24
60974;BME280;46846;51.528;5.076;2024-01-27T12:20:22;103057.50;;;1.21;90.70
60974;BME280;46846;51.528;5.076;2024-01-27T12:22:48;103058.44;;;1.23;91.13
60974;BME280;46846;51.528;5.076;2024-01-27T12:25:16;103046.94;;;1.20;90.88
60974;BME280;46846;51.528;5.076;2024-01-27T12:27:43;103044.44;;;1.23;90.93
60974;BME280;46846;51.528;5.076;2024-01-27T12:30:09;103034.84;;;1.23;91.03
60974;BME280;46846;51.528;5.076;2024-01-27T12:32:35;103032.28;;;1.25;91.07
60974;BME280;46846;51.528;5.076;2024-01-27T12:35:05;103037.34;;;1.20;90.69
60974;BME280;46846;51.528;5.076;2024-01-27T12:37:30;103036.69;;;1.26;90.55
60974;BME280;46846;51.528;5.076;2024-01-27T12:39:56;103036.03;;;1.32;90.82
60974;BME280;46846;51.528;5.076;2024-01-27T12:42:21;103026.38;;;1.31;90.76
60974;BME280;46846;51.528;5.076;2024-01-27T12:44:47;103030.22;;;1.39;90.49
60974;BME280;46846;51.528;5.076;2024-01-27T12:47:13;103027.69;;;1.42;90.83
60974;BME280;46846;51.528;5.076;2024-01-27T12:49:39;103030.88;;;1.33;90.50
60974;BME280;46846;51.528;5.076;2024-01-27T12:52:06;103025.72;;;1.36;90.71
60974;BME280;46846;51.528;5.076;2024-01-27T12:54:32;103021.75;;;1.46;90.45